sensor_id;sensor_type;location;lat;lon;timestamp;pressure;altitude;pressure_sealevel;temperature;humidity
56795;BME280;42678;59.400;18.410;2022-10-31T00:01:29;101652.34;;;4.14;100.00
56795;BME280;42678;59.400;18.410;2022-10-31T00:03:55;101652.00;;;4.23;100.00
56795;BME280;42678;59.400;18.410;2022-10-31T00:06:21;101645.56;;;4.29;100.00
56795;BME280;42678;59.400;18.410;2022-10-31T00:08:52;101655.09;;;4.34;100.00
56795;BME280;42678;59.400;18.410;2022-10-31T00:11:18;101646.31;;;4.32;100.00
56795;BME280;42678;59.400;18.410;2022-10-31T00:13:44;101643.41;;;4.38;100.00
56795;BME280;42678;59.400;18.410;2022-10-31T00:16:17;101640.63;;;4.41;100.00
56795;BME280;42678;59.400;18.410;2022-10-31T00:18:48;101630.91;;;4.40;100.00
56795;BME280;42678;59.400;18.410;2022-10-31T00:21:14;101624.38;;;4.47;100.00
56795;BME280;42678;59.400;18.410;2022-10-31T00:23:40;101631.22;;;4.55;100.00
56795;BME280;42678;59.400;18.410;2022-10-31T00:26:05;101629.72;;;4.47;100.00
56795;BME280;42678;59.400;18.410;2022-10-31T00:28:33;101635.75;;;4.51;100.00
56795;BME280;42678;59.400;18.410;2022-10-31T00:31:00;101639.19;;;4.55;100.00
56795;BME280;42678;59.400;18.410;2022-10-31T00:33:26;101629.16;;;4.81;100.00
56795;BME280;42678;59.400;18.410;2022-10-31T00:35:52;101635.13;;;4.88;100.00
56795;BME280;42678;59.400;18.410;2022-10-31T00:38:18;101636.06;;;4.87;100.00
56795;BME280;42678;59.400;18.410;2022-10-31T00:40:43;101637.03;;;4.84;100.00
56795;BME280;42678;59.400;18.410;2022-10-31T00:43:09;101639.38;;;4.72;100.00
56795;BME280;42678;59.400;18.410;2022-10-31T00:45:34;101646.00;;;4.62;100.00
56795;BME280;42678;59.400;18.410;2022-10-31T00:48:00;101641.88;;;4.55;100.00
56795;BME280;42678;59.400;18.410;2022-10-31T00:50:26;101636.41;;;4.58;100.00
56795;BME280;42678;59.400;18.410;2022-10-31T00:52:51;101641.56;;;4.40;100.00
56795;BME280;42678;59.400;18.410;2022-10-31T00:55:17;101643.09;;;4.24;100.00
56795;BME280;42678;59.400;18.410;2022-10-31T00:57:42;101644.38;;;4.14;100.00
56795;BME280;42678;59.400;18.410;2022-10-31T01:00:10;101637.31;;;4.35;100.00
56795;BME280;42678;59.400;18.410;2022-10-31T01:02:36;101638.88;;;4.40;100.00
56795;BME280;42678;59.400;18.410;2022-10-31T01:05:02;101639.38;;;4.28;100.00
56795;BME280;42678;59.400;18.410;2022-10-31T01:07:27;101633.50;;;4.20;100.00
56795;BME280;42678;59.400;18.410;2022-10-31T01:09:53;101635.25;;;4.19;100.00
56795;BME280;42678;59.400;18.410;2022-10-31T01:12:18;101631.81;;;4.17;100.00
56795;BME280;42678;59.400;18.410;2022-10-31T01:14:44;101635.53;;;4.13;100.00
56795;BME280;42678;59.400;18.410;2022-10-31T01:17:12;101628.47;;;4.12;100.00
56795;BME280;42678;59.400;18.410;2022-10-31T01:19:37;101625.88;;;4.11;100.00
56795;BME280;42678;59.400;18.410;2022-10-31T01:22:03;101625.81;;;4.12;100.00
56795;BME280;42678;59.400;18.410;2022-10-31T01:24:28;101615.47;;;4.05;100.00
56795;BME280;42678;59.400;18.410;2022-10-31T01:26:54;101620.03;;;4.01;100.00
56795;BME280;42678;59.400;18.410;2022-10-31T01:29:19;101625.19;;;4.06;100.00
56795;BME280;42678;59.400;18.410;2022-10-31T01:31:45;101617.31;;;4.03;100.00
56795;BME280;42678;59.400;18.410;2022-10-31T01:34:15;101620.59;;;4.09;100.00
56795;BME280;42678;59.400;18.410;2022-10-31T01:36:41;101611.38;;;4.18;100.00
56795;BME280;42678;59.400;18.410;2022-10-31T01:39:10;101611.50;;;4.15;100.00
56795;BME280;42678;59.400;18.410;2022-10-31T01:41:39;101612.50;;;4.34;100.00
56795;BME280;42678;59.400;18.410;2022-10-31T01:49:18;101619.81;;;4.29;100.00
56795;BME280;42678;59.400;18.410;2022-10-31T01:54:55;101623.41;;;4.06;100.00
56795;BME280;42678;59.400;18.410;2022-10-31T01:57:23;101620.66;;;4.08;100.00
56795;BME280;42678;59.400;18.410;2022-10-31T01:59:55;101626.00;;;4.08;100.00
56795;BME280;42678;59.400;18.410;2022-10-31T02:02:24;101624.31;;;4.05;100.00
56795;BME280;42678;59.400;18.410;2022-10-31T02:04:51;101632.84;;;4.13;100.00
56795;BME280;42678;59.400;18.410;2022-10-31T02:07:25;101620.53;;;4.11;100.00
56795;BME280;42678;59.400;18.410;2022-10-31T02:09:53;101632.94;;;4.12;100.00
56795;BME280;42678;59.400;18.410;2022-10-31T02:12:20;101628.41;;;4.14;100.00
56795;BME280;42678;59.400;18.410;2022-10-31T02:14:46;101622.16;;;4.15;100.00
56795;BME280;42678;59.400;18.410;2022-10-31T02:17:11;101628.47;;;4.12;100.00
56795;BME280;42678;59.400;18.410;2022-10-31T02:22:26;101633.41;;;4.00;100.00
56795;BME280;42678;59.400;18.410;2022-10-31T02:25:49;101630.72;;;4.00;100.00
56795;BME280;42678;59.400;18.410;2022-10-31T02:31:39;101622.41;;;4.09;100.00
56795;BME280;42678;59.400;18.410;2022-10-31T02:39:16;101627.59;;;4.12;100.00
56795;BME280;42678;59.400;18.410;2022-10-31T02:41:49;101625.63;;;4.17;100.00
56795;BME280;42678;59.400;18.410;2022-10-31T02:47:17;101629.72;;;4.26;100.00
56795;BME280;42678;59.400;18.410;2022-10-31T02:49:57;101627.25;;;4.21;100.00
56795;BME280;42678;59.400;18.410;2022-10-31T02:52:29;101628.06;;;4.23;100.00
56795;BME280;42678;59.400;18.410;2022-10-31T02:54:55;101629.91;;;4.21;100.00
56795;BME280;42678;59.400;18.410;2022-10-31T02:57:41;101636.25;;;4.17;100.00
56795;BME280;42678;59.400;18.410;2022-10-31T03:00:08;101636.25;;;4.17;100.00
56795;BME280;42678;59.400;18.410;2022-10-31T03:03:04;101635.78;;;4.29;100.00
56795;BME280;42678;59.400;18.410;2022-10-31T03:08:48;101629.97;;;4.41;100.00
56795;BME280;42678;59.400;18.410;2022-10-31T03:11:17;101628.72;;;4.50;100.00
56795;BME280;42678;59.400;18.410;2022-10-31T03:13:54;101627.97;;;4.46;100.00
56795;BME280;42678;59.400;18.410;2022-10-31T03:16:25;101632.00;;;4.57;100.00
56795;BME280;42678;59.400;18.410;2022-10-31T03:19:06;101635.88;;;4.70;100.00
56795;BME280;42678;59.400;18.410;2022-10-31T03:21:42;101623.25;;;4.75;100.00
56795;BME280;42678;59.400;18.410;2022-10-31T03:24:10;101637.22;;;4.80;100.00
56795;BME280;42678;59.400;18.410;2022-10-31T03:26:41;101625.19;;;4.92;100.00
56795;BME280;42678;59.400;18.410;2022-10-31T03:29:11;101624.59;;;5.26;100.00
56795;BME280;42678;59.400;18.410;2022-10-31T03:31:49;101626.75;;;5.36;100.00
56795;BME280;42678;59.400;18.410;2022-10-31T03:34:18;101621.44;;;5.36;100.00
56795;BME280;42678;59.400;18.410;2022-10-31T03:36:49;101629.69;;;5.51;100.00
56795;BME280;42678;59.400;18.410;2022-10-31T03:39:18;101622.41;;;5.54;100.00
56795;BME280;42678;59.400;18.410;2022-10-31T03:44:33;101630.28;;;5.57;100.00
56795;BME280;42678;59.400;18.410;2022-10-31T03:47:01;101629.41;;;5.57;100.00
56795;BME280;42678;59.400;18.410;2022-10-31T03:49:27;101626.94;;;5.52;100.00
56795;BME280;42678;59.400;18.410;2022-10-31T03:57:29;101624.75;;;5.81;100.00
56795;BME280;42678;59.400;18.410;2022-10-31T04:02:30;101610.66;;;6.33;100.00
56795;BME280;42678;59.400;18.410;2022-10-31T04:04:58;101607.00;;;6.53;100.00
56795;BME280;42678;59.400;18.410;2022-10-31T04:07:29;101608.50;;;6.42;100.00
56795;BME280;42678;59.400;18.410;2022-10-31T04:09:57;101610.72;;;6.68;100.00
56795;BME280;42678;59.400;18.410;2022-10-31T04:12:26;101608.50;;;6.42;100.00
56795;BME280;42678;59.400;18.410;2022-10-31T04:14:54;101609.75;;;6.52;100.00
56795;BME280;42678;59.400;18.410;2022-10-31T04:17:23;101600.81;;;6.53;100.00
56795;BME280;42678;59.400;18.410;2022-10-31T04:19:50;101594.03;;;6.46;100.00
56795;BME280;42678;59.400;18.410;2022-10-31T04:22:16;101598.06;;;6.18;100.00
56795;BME280;42678;59.400;18.410;2022-10-31T04:24:42;101595.22;;;6.21;100.00
56795;BME280;42678;59.400;18.410;2022-10-31T04:27:07;101595.22;;;6.21;100.00
56795;BME280;42678;59.400;18.410;2022-10-31T04:29:33;101586.22;;;6.60;100.00
56795;BME280;42678;59.400;18.410;2022-10-31T04:31:59;101592.50;;;6.76;100.00
56795;BME280;42678;59.400;18.410;2022-10-31T04:34:24;101587.16;;;6.93;100.00
56795;BME280;42678;59.400;18.410;2022-10-31T04:36:50;101583.78;;;6.73;100.00
56795;BME280;42678;59.400;18.410;2022-10-31T04:39:16;101577.25;;;6.96;100.00
56795;BME280;42678;59.400;18.410;2022-10-31T04:41:41;101583.78;;;7.07;100.00
56795;BME280;42678;59.400;18.410;2022-10-31T04:44:07;101587.66;;;7.17;100.00
56795;BME280;42678;59.400;18.410;2022-10-31T04:46:32;101579.56;;;7.19;100.00
56795;BME280;42678;59.400;18.410;2022-10-31T04:48:59;101583.81;;;7.23;100.00
56795;BME280;42678;59.400;18.410;2022-10-31T04:51:24;101573.91;;;7.25;100.00
56795;BME280;42678;59.400;18.410;2022-10-31T04:53:50;101575.28;;;7.32;100.00
56795;BME280;42678;59.400;18.410;2022-10-31T04:56:15;101576.84;;;7.36;100.00
56795;BME280;42678;59.400;18.410;2022-10-31T04:58:41;101580.31;;;7.38;100.00
56795;BME280;42678;59.400;18.410;2022-10-31T05:01:07;101582.06;;;7.39;100.00
56795;BME280;42678;59.400;18.410;2022-10-31T05:03:32;101577.50;;;7.41;100.00
56795;BME280;42678;59.400;18.410;2022-10-31T05:05:58;101587.06;;;7.45;100.00
56795;BME280;42678;59.400;18.410;2022-10-31T05:08:23;101580.16;;;7.41;100.00
56795;BME280;42678;59.400;18.410;2022-10-31T05:10:49;101579.81;;;7.47;100.00
56795;BME280;42678;59.400;18.410;2022-10-31T05:13:14;101568.94;;;7.50;100.00
56795;BME280;42678;59.400;18.410;2022-10-31T05:15:40;101576.03;;;7.51;100.00
56795;BME280;42678;59.400;18.410;2022-10-31T05:18:07;101572.56;;;7.49;100.00
56795;BME280;42678;59.400;18.410;2022-10-31T05:20:33;101566.88;;;7.55;100.00
56795;BME280;42678;59.400;18.410;2022-10-31T05:22:59;101574.84;;;7.57;100.00
56795;BME280;42678;59.400;18.410;2022-10-31T05:25:27;101565.00;;;7.58;100.00
56795;BME280;42678;59.400;18.410;2022-10-31T05:27:54;101572.94;;;7.59;100.00
56795;BME280;42678;59.400;18.410;2022-10-31T05:30:23;101565.00;;;7.58;100.00
56795;BME280;42678;59.400;18.410;2022-10-31T05:32:49;101564.06;;;7.59;100.00
56795;BME280;42678;59.400;18.410;2022-10-31T05:35:19;101557.94;;;7.57;100.00
56795;BME280;42678;59.400;18.410;2022-10-31T05:37:45;101569.31;;;7.60;100.00
56795;BME280;42678;59.400;18.410;2022-10-31T05:40:14;101566.56;;;7.62;100.00
56795;BME280;42678;59.400;18.410;2022-10-31T05:42:41;101562.94;;;7.63;100.00
56795;BME280;42678;59.400;18.410;2022-10-31T05:45:14;101552.22;;;7.63;100.00
56795;BME280;42678;59.400;18.410;2022-10-31T05:47:40;101561.03;;;7.65;100.00
56795;BME280;42678;59.400;18.410;2022-10-31T05:50:07;101557.41;;;7.66;100.00
56795;BME280;42678;59.400;18.410;2022-10-31T05:52:33;101555.69;;;7.65;100.00
56795;BME280;42678;59.400;18.410;2022-10-31T05:54:58;101562.59;;;7.69;100.00
56795;BME280;42678;59.400;18.410;2022-10-31T05:57:24;101563.44;;;7.69;100.00
56795;BME280;42678;59.400;18.410;2022-10-31T05:59:50;101566.91;;;7.71;100.00
56795;BME280;42678;59.400;18.410;2022-10-31T06:02:19;101566.91;;;7.71;100.00
56795;BME280;42678;59.400;18.410;2022-10-31T06:04:44;101565.88;;;7.74;100.00
56795;BME280;42678;59.400;18.410;2022-10-31T06:07:10;101566.75;;;7.74;100.00
56795;BME280;42678;59.400;18.410;2022-10-31T06:09:36;101565.53;;;7.80;100.00
56795;BME280;42678;59.400;18.410;2022-10-31T06:12:01;101566.50;;;7.79;100.00
56795;BME280;42678;59.400;18.410;2022-10-31T06:14:27;101564.59;;;7.81;100.00
56795;BME280;42678;59.400;18.410;2022-10-31T06:16:54;101559.81;;;7.86;100.00
56795;BME280;42678;59.400;18.410;2022-10-31T06:19:20;101557.94;;;7.88;100.00
56795;BME280;42678;59.400;18.410;2022-10-31T06:21:46;101564.84;;;7.92;100.00
56795;BME280;42678;59.400;18.410;2022-10-31T06:24:12;101572.72;;;7.95;100.00
56795;BME280;42678;59.400;18.410;2022-10-31T06:26:37;101570.03;;;7.95;100.00
56795;BME280;42678;59.400;18.410;2022-10-31T06:29:03;101574.44;;;7.96;100.00
56795;BME280;42678;59.400;18.410;2022-10-31T06:31:29;101577.53;;;8.04;100.00
56795;BME280;42678;59.400;18.410;2022-10-31T06:33:54;101576.44;;;8.08;100.00
56795;BME280;42678;59.400;18.410;2022-10-31T06:36:20;101572.63;;;8.12;100.00
56795;BME280;42678;59.400;18.410;2022-10-31T06:38:46;101565.34;;;8.14;100.00
56795;BME280;42678;59.400;18.410;2022-10-31T06:41:11;101572.44;;;8.15;100.00
56795;BME280;42678;59.400;18.410;2022-10-31T06:43:37;101574.16;;;8.17;100.00
56795;BME280;42678;59.400;18.410;2022-10-31T06:46:04;101565.84;;;8.21;100.00
56795;BME280;42678;59.400;18.410;2022-10-31T06:48:30;101573.13;;;8.19;100.00
56795;BME280;42678;59.400;18.410;2022-10-31T06:50:59;101563.81;;;8.26;100.00
56795;BME280;42678;59.400;18.410;2022-10-31T06:53:26;101578.84;;;8.29;100.00
56795;BME280;42678;59.400;18.410;2022-10-31T06:55:52;101572.53;;;8.30;100.00
56795;BME280;42678;59.400;18.410;2022-10-31T06:58:17;101574.16;;;8.32;100.00
56795;BME280;42678;59.400;18.410;2022-10-31T07:00:43;101574.09;;;8.34;100.00
56795;BME280;42678;59.400;18.410;2022-10-31T07:03:11;101576.44;;;8.40;100.00
56795;BME280;42678;59.400;18.410;2022-10-31T07:05:37;101587.16;;;8.40;100.00
56795;BME280;42678;59.400;18.410;2022-10-31T07:08:06;101578.94;;;8.43;100.00
56795;BME280;42678;59.400;18.410;2022-10-31T07:10:35;101580.56;;;8.46;100.00
56795;BME280;42678;59.400;18.410;2022-10-31T07:13:04;101589.47;;;8.46;100.00
56795;BME280;42678;59.400;18.410;2022-10-31T07:15:34;101592.91;;;8.48;100.00
56795;BME280;42678;59.400;18.410;2022-10-31T07:18:04;101582.78;;;8.53;100.00
56795;BME280;42678;59.400;18.410;2022-10-31T07:20:30;101593.31;;;8.56;100.00
56795;BME280;42678;59.400;18.410;2022-10-31T07:22:56;101580.72;;;8.58;100.00
56795;BME280;42678;59.400;18.410;2022-10-31T07:25:24;101577.09;;;8.59;100.00
56795;BME280;42678;59.400;18.410;2022-10-31T07:27:50;101591.06;;;8.64;100.00
56795;BME280;42678;59.400;18.410;2022-10-31T07:30:15;101589.25;;;8.65;100.00
56795;BME280;42678;59.400;18.410;2022-10-31T07:32:48;101598.84;;;8.69;100.00
56795;BME280;42678;59.400;18.410;2022-10-31T07:35:24;101588.78;;;8.72;100.00
56795;BME280;42678;59.400;18.410;2022-10-31T07:37:50;101580.50;;;8.77;100.00
56795;BME280;42678;59.400;18.410;2022-10-31T07:40:17;101583.84;;;8.81;100.00
56795;BME280;42678;59.400;18.410;2022-10-31T07:42:48;101577.53;;;8.82;100.00
56795;BME280;42678;59.400;18.410;2022-10-31T07:45:17;101580.88;;;8.85;100.00
56795;BME280;42678;59.400;18.410;2022-10-31T07:47:45;101584.44;;;8.86;100.00
56795;BME280;42678;59.400;18.410;2022-10-31T07:50:14;101582.78;;;8.83;100.00
56795;BME280;42678;59.400;18.410;2022-10-31T07:52:40;101577.00;;;8.91;100.00
56795;BME280;42678;59.400;18.410;2022-10-31T07:55:06;101580.16;;;8.97;100.00
56795;BME280;42678;59.400;18.410;2022-10-31T07:57:32;101583.69;;;8.98;100.00
56795;BME280;42678;59.400;18.410;2022-10-31T07:59:58;101581.59;;;9.03;100.00
56795;BME280;42678;59.400;18.410;2022-10-31T08:02:24;101571.63;;;9.05;100.00
56795;BME280;42678;59.400;18.410;2022-10-31T08:04:50;101565.13;;;9.09;100.00
56795;BME280;42678;59.400;18.410;2022-10-31T08:07:16;101578.25;;;9.14;100.00
56795;BME280;42678;59.400;18.410;2022-10-31T08:09:42;101584.31;;;9.17;100.00
56795;BME280;42678;59.400;18.410;2022-10-31T08:12:08;101585.25;;;9.16;100.00
56795;BME280;42678;59.400;18.410;2022-10-31T08:14:33;101589.88;;;9.14;100.00
56795;BME280;42678;59.400;18.410;2022-10-31T08:16:59;101592.91;;;9.22;100.00
56795;BME280;42678;59.400;18.410;2022-10-31T08:19:25;101590.84;;;9.27;100.00
56795;BME280;42678;59.400;18.410;2022-10-31T08:21:51;101585.75;;;9.37;100.00
56795;BME280;42678;59.400;18.410;2022-10-31T08:24:17;101592.38;;;9.31;100.00
56795;BME280;42678;59.400;18.410;2022-10-31T08:26:43;101585.09;;;9.33;100.00
56795;BME280;42678;59.400;18.410;2022-10-31T08:29:08;101583.75;;;9.41;100.00
56795;BME280;42678;59.400;18.410;2022-10-31T08:31:34;101584.44;;;9.44;100.00
56795;BME280;42678;59.400;18.410;2022-10-31T08:34:00;101577.25;;;9.45;100.00
56795;BME280;42678;59.400;18.410;2022-10-31T08:36:27;101586.81;;;9.49;100.00
56795;BME280;42678;59.400;18.410;2022-10-31T08:38:53;101587.31;;;9.41;100.00
56795;BME280;42678;59.400;18.410;2022-10-31T08:41:19;101589.91;;;9.43;100.00
56795;BME280;42678;59.400;18.410;2022-10-31T08:43:45;101589.03;;;9.42;100.00
56795;BME280;42678;59.400;18.410;2022-10-31T08:46:10;101585.97;;;9.48;100.00
56795;BME280;42678;59.400;18.410;2022-10-31T08:48:36;101583.56;;;9.58;100.00
56795;BME280;42678;59.400;18.410;2022-10-31T08:51:02;101586.63;;;9.66;100.00
56795;BME280;42678;59.400;18.410;2022-10-31T08:53:27;101579.53;;;9.65;100.00
56795;BME280;42678;59.400;18.410;2022-10-31T08:55:55;101591.59;;;9.72;100.00
56795;BME280;42678;59.400;18.410;2022-10-31T08:58:22;101594.00;;;9.77;100.00
56795;BME280;42678;59.400;18.410;2022-10-31T09:00:52;101588.34;;;9.81;100.00
56795;BME280;42678;59.400;18.410;2022-10-31T09:03:25;101576.06;;;9.77;100.00
56795;BME280;42678;59.400;18.410;2022-10-31T09:05:55;101576.06;;;9.91;100.00
56795;BME280;42678;59.400;18.410;2022-10-31T09:08:21;101580.25;;;9.95;100.00
56795;BME280;42678;59.400;18.410;2022-10-31T09:10:47;101586.41;;;9.98;100.00
56795;BME280;42678;59.400;18.410;2022-10-31T09:13:15;101589.84;;;10.00;100.00
56795;BME280;42678;59.400;18.410;2022-10-31T09:15:42;101581.78;;;10.00;100.00
56795;BME280;42678;59.400;18.410;2022-10-31T09:18:12;101587.06;;;10.01;100.00
56795;BME280;42678;59.400;18.410;2022-10-31T09:20:38;101599.06;;;9.95;100.00
56795;BME280;42678;59.400;18.410;2022-10-31T09:23:16;101596.94;;;9.86;100.00
56795;BME280;42678;59.400;18.410;2022-10-31T09:25:43;101601.56;;;9.84;100.00
56795;BME280;42678;59.400;18.410;2022-10-31T09:28:11;101598.88;;;9.99;100.00
56795;BME280;42678;59.400;18.410;2022-10-31T09:30:38;101610.28;;;10.02;100.00
56795;BME280;42678;59.400;18.410;2022-10-31T09:33:05;101604.97;;;10.15;100.00
56795;BME280;42678;59.400;18.410;2022-10-31T09:35:32;101604.78;;;10.18;100.00
56795;BME280;42678;59.400;18.410;2022-10-31T09:37:59;101593.84;;;10.21;100.00
56795;BME280;42678;59.400;18.410;2022-10-31T09:40:36;101592.59;;;10.27;100.00
56795;BME280;42678;59.400;18.410;2022-10-31T09:48:36;101593.41;;;10.41;100.00
56795;BME280;42678;59.400;18.410;2022-10-31T09:51:07;101587.09;;;10.55;100.00
56795;BME280;42678;59.400;18.410;2022-10-31T09:56:07;101587.78;;;10.59;100.00
56795;BME280;42678;59.400;18.410;2022-10-31T09:58:42;101589.28;;;10.63;100.00
56795;BME280;42678;59.400;18.410;2022-10-31T10:03:57;101592.56;;;10.80;100.00
56795;BME280;42678;59.400;18.410;2022-10-31T10:06:28;101593.50;;;10.67;100.00
56795;BME280;42678;59.400;18.410;2022-10-31T10:08:55;101593.06;;;10.73;100.00
56795;BME280;42678;59.400;18.410;2022-10-31T10:14:04;101584.81;;;10.76;100.00
56795;BME280;42678;59.400;18.410;2022-10-31T10:16:45;101581.69;;;10.82;100.00
56795;BME280;42678;59.400;18.410;2022-10-31T10:22:16;101584.38;;;10.82;100.00
56795;BME280;42678;59.400;18.410;2022-10-31T10:25:09;101588.59;;;10.86;100.00
56795;BME280;42678;59.400;18.410;2022-10-31T10:28:08;101583.06;;;10.75;100.00
56795;BME280;42678;59.400;18.410;2022-10-31T10:30:42;101585.00;;;10.73;100.00
56795;BME280;42678;59.400;18.410;2022-10-31T10:33:40;101585.00;;;10.73;100.00
56795;BME280;42678;59.400;18.410;2022-10-31T10:36:13;101590.38;;;10.73;100.00
56795;BME280;42678;59.400;18.410;2022-10-31T10:38:50;101591.22;;;10.61;100.00
56795;BME280;42678;59.400;18.410;2022-10-31T10:41:23;101593.91;;;10.61;100.00
56795;BME280;42678;59.400;18.410;2022-10-31T10:43:50;101578.94;;;10.57;100.00
56795;BME280;42678;59.400;18.410;2022-10-31T10:46:34;101592.72;;;10.65;100.00
56795;BME280;42678;59.400;18.410;2022-10-31T10:49:50;101592.72;;;10.65;100.00
56795;BME280;42678;59.400;18.410;2022-10-31T10:55:09;101586.38;;;10.66;100.00
56795;BME280;42678;59.400;18.410;2022-10-31T10:58:00;101591.06;;;10.76;100.00
56795;BME280;42678;59.400;18.410;2022-10-31T11:00:46;101589.78;;;10.82;100.00
56795;BME280;42678;59.400;18.410;2022-10-31T11:03:13;101585.69;;;10.89;100.00
56795;BME280;42678;59.400;18.410;2022-10-31T11:08:30;101586.34;;;10.93;100.00
56795;BME280;42678;59.400;18.410;2022-10-31T11:11:04;101588.28;;;11.03;100.00
56795;BME280;42678;59.400;18.410;2022-10-31T11:13:33;101593.47;;;11.06;100.00
56795;BME280;42678;59.400;18.410;2022-10-31T11:16:07;101591.50;;;11.08;100.00
56795;BME280;42678;59.400;18.410;2022-10-31T11:18:39;101596.28;;;11.18;100.00
56795;BME280;42678;59.400;18.410;2022-10-31T11:21:20;101598.22;;;11.15;100.00
56795;BME280;42678;59.400;18.410;2022-10-31T11:23:47;101602.00;;;11.26;100.00
56795;BME280;42678;59.400;18.410;2022-10-31T11:26:20;101597.66;;;11.23;100.00
56795;BME280;42678;59.400;18.410;2022-10-31T11:28:56;101605.75;;;11.23;100.00
56795;BME280;42678;59.400;18.410;2022-10-31T11:31:23;101601.13;;;11.25;100.00
56795;BME280;42678;59.400;18.410;2022-10-31T11:34:04;101599.97;;;11.29;100.00
56795;BME280;42678;59.400;18.410;2022-10-31T11:36:33;101608.22;;;11.39;100.00
56795;BME280;42678;59.400;18.410;2022-10-31T11:39:02;101597.34;;;11.40;100.00
56795;BME280;42678;59.400;18.410;2022-10-31T11:41:31;101597.56;;;11.50;100.00
56795;BME280;42678;59.400;18.410;2022-10-31T11:44:05;101591.22;;;11.38;100.00
56795;BME280;42678;59.400;18.410;2022-10-31T11:46:45;101593.78;;;11.40;100.00
56795;BME280;42678;59.400;18.410;2022-10-31T11:49:26;101587.66;;;11.63;100.00
56795;BME280;42678;59.400;18.410;2022-10-31T11:51:55;101583.13;;;11.77;100.00
56795;BME280;42678;59.400;18.410;2022-10-31T11:54:32;101588.50;;;11.89;99.51
56795;BME280;42678;59.400;18.410;2022-10-31T11:57:01;101590.41;;;12.00;99.10
56795;BME280;42678;59.400;18.410;2022-10-31T11:59:30;101583.91;;;12.15;98.19
56795;BME280;42678;59.400;18.410;2022-10-31T12:02:01;101575.78;;;12.28;97.25
56795;BME280;42678;59.400;18.410;2022-10-31T12:04:50;101584.13;;;12.12;97.03
56795;BME280;42678;59.400;18.410;2022-10-31T12:07:17;101571.91;;;12.19;97.12
56795;BME280;42678;59.400;18.410;2022-10-31T12:09:43;101576.09;;;12.23;96.20
56795;BME280;42678;59.400;18.410;2022-10-31T12:12:34;101575.31;;;12.10;96.46
56795;BME280;42678;59.400;18.410;2022-10-31T12:15:35;101580.28;;;12.03;97.13
56795;BME280;42678;59.400;18.410;2022-10-31T12:21:19;101571.22;;;12.04;97.71
56795;BME280;42678;59.400;18.410;2022-10-31T12:28:56;101576.34;;;12.20;97.15
56795;BME280;42678;59.400;18.410;2022-10-31T12:37:28;101572.44;;;12.24;96.87
56795;BME280;42678;59.400;18.410;2022-10-31T12:45:54;101566.38;;;12.33;96.60
56795;BME280;42678;59.400;18.410;2022-10-31T12:48:53;101573.72;;;12.31;96.99
56795;BME280;42678;59.400;18.410;2022-10-31T12:51:37;101559.25;;;12.32;96.53
56795;BME280;42678;59.400;18.410;2022-10-31T12:54:54;101562.22;;;12.41;96.09
56795;BME280;42678;59.400;18.410;2022-10-31T12:57:27;101562.00;;;12.44;95.83
56795;BME280;42678;59.400;18.410;2022-10-31T13:00:12;101565.28;;;12.36;96.31
56795;BME280;42678;59.400;18.410;2022-10-31T13:03:21;101560.25;;;12.43;96.45
56795;BME280;42678;59.400;18.410;2022-10-31T13:05:43;101555.41;;;12.48;95.90
56795;BME280;42678;59.400;18.410;2022-10-31T13:08:16;101561.03;;;12.45;95.76
56795;BME280;42678;59.400;18.410;2022-10-31T13:10:48;101551.22;;;12.44;96.05
56795;BME280;42678;59.400;18.410;2022-10-31T13:13:27;101558.59;;;12.53;95.35
56795;BME280;42678;59.400;18.410;2022-10-31T13:16:24;101565.78;;;12.65;95.47
56795;BME280;42678;59.400;18.410;2022-10-31T13:19:06;101567.75;;;12.63;94.87
56795;BME280;42678;59.400;18.410;2022-10-31T13:22:06;101562.97;;;12.67;94.34
56795;BME280;42678;59.400;18.410;2022-10-31T13:24:48;101575.13;;;12.72;94.64
56795;BME280;42678;59.400;18.410;2022-10-31T13:27:21;101566.28;;;12.70;94.12
56795;BME280;42678;59.400;18.410;2022-10-31T13:32:22;101574.59;;;12.67;94.51
56795;BME280;42678;59.400;18.410;2022-10-31T13:34:55;101573.03;;;12.76;94.19
56795;BME280;42678;59.400;18.410;2022-10-31T13:37:41;101570.44;;;12.74;94.57
56795;BME280;42678;59.400;18.410;2022-10-31T13:40:14;101574.09;;;12.62;94.32
56795;BME280;42678;59.400;18.410;2022-10-31T13:45:16;101558.91;;;12.61;94.91
56795;BME280;42678;59.400;18.410;2022-10-31T13:47:43;101561.47;;;12.62;95.00
56795;BME280;42678;59.400;18.410;2022-10-31T13:52:43;101556.28;;;12.59;95.53
56795;BME280;42678;59.400;18.410;2022-10-31T13:55:35;101563.59;;;12.70;94.71
56795;BME280;42678;59.400;18.410;2022-10-31T13:58:04;101568.59;;;12.63;95.02
56795;BME280;42678;59.400;18.410;2022-10-31T14:00:31;101567.31;;;12.56;95.11
56795;BME280;42678;59.400;18.410;2022-10-31T14:03:00;101570.13;;;12.55;95.93
56795;BME280;42678;59.400;18.410;2022-10-31T14:05:30;101566.47;;;12.56;96.42
56795;BME280;42678;59.400;18.410;2022-10-31T14:07:58;101560.44;;;12.52;96.10
56795;BME280;42678;59.400;18.410;2022-10-31T14:10:28;101559.59;;;12.52;96.21
56795;BME280;42678;59.400;18.410;2022-10-31T14:13:31;101556.66;;;12.55;95.90
56795;BME280;42678;59.400;18.410;2022-10-31T14:16:27;101551.25;;;12.55;96.49
56795;BME280;42678;59.400;18.410;2022-10-31T14:19:13;101561.94;;;12.56;96.23
56795;BME280;42678;59.400;18.410;2022-10-31T14:21:44;101553.94;;;12.55;96.45